METAR stanice u blizini

 

LYNI - Nis, Yugoslavia
Distance from station: JZ 40km
Ažurirano: 05/07/2022 16:30
Few Clouds
Few Clouds
 Pravac vetra ISI
Vetar: ISI 6 km/h
Temperatura: 34°C
Tačka rose: 12°C
Vlažnost: 26%
Pritisak: 1011 hPa
Oblaci: Few Clouds
Vidljivost: 10 km
Cloud details: Few Clouds 1524 m
2022/07/05 14:30 LYNI 051430Z 06003KT 360V110 9999 FEW050 34/12 Q1011 NOSIG
LYKV - Kraljevo, Yugoslavia
Distance from station: ZSZ 136km
Ažurirano: 05/07/2022 16:30
Delimično oblačno
Delimično oblačno
 Pravac vetra SI
Vetar: SI 13 km/h
Temperatura: 32°C
Tačka rose: 16°C
Vlažnost: 38%
Pritisak: 1011 hPa
Oblaci: Delimično oblačno
Vidljivost: 10 km
Cloud details: Few Clouds 1006 m
Delimično oblačno 1219 m
2022/07/05 14:30 LYKV 051430Z 04007KT 9999 FEW033TCU SCT040 32/16 Q1011 RETS NOSIG
LBSF - Sofia (observato, Bulgaria
Distance from station: JI 138km
Ažurirano: 05/07/2022 16:30
Thunderstorm, Delimično oblačno
Thunderstorm, Delimično oblačno
 Pravac vetra JI
Vetar: JI 17 km/h
Temperatura: 31°C
Tačka rose: 14°C
Vlažnost: 35%
Pritisak: 1014 hPa
Pregled: Thunderstorm
Oblaci: Delimično oblačno
Vidljivost: 10 km
Cloud details: Few Clouds 1006 m
Delimično oblačno 2134 m
2022/07/05 14:30 LBSF 051430Z 14009KT 100V170 9999 TS FEW033CB SCT070 31/14 Q1014 NOSIG
 
BKPR - Prishtina, Yugoslavia
Distance from station: JZ 147km
Ažurirano: 05/07/2022 16:30
Thunderstorm, Pretežno oblačno
Thunderstorm, Pretežno oblačno
 Pravac vetra ISI
Vetar: ISI 37 km/h
Temperatura: 27°C
Tačka rose: 12°C
Vlažnost: 39%
Pritisak: 1014 hPa
Pregled: Thunderstorm
Oblaci: Pretežno oblačno
Vidljivost: 10 km
Cloud details: Delimično oblačno 914 m
Pretežno oblačno 1524 m
2022/07/05 14:30 BKPR 051430Z 07020KT 9999 TS SCT030CB BKN050 27/12 Q1014 TEMPO 5000 TSRA
LRCV - Craiova, Romania
Distance from station: SI 154km
Ažurirano: 05/07/2022 16:30
Nearby thunderstorm, Few clouds
Nearby thunderstorm, Few clouds
 Pravac vetra IJI
Vetar: IJI 20 km/h
Temperatura: 33°C
Tačka rose: 15°C
Vlažnost: 34%
Pritisak: 1012 hPa
Pregled: Nearby Thunderstorm
Oblaci: Few Clouds
Vidljivost: 10 km
Cloud details: Few Clouds 1524 m
2022/07/05 14:30 LRCV 051430Z 12011KT 9999 VCTS FEW050CB 33/15 Q1012
LWSK - Skopje/Petrovac, Macedonia
Distance from station: JJZ 185km
Ažurirano: 05/07/2022 16:30
Few Clouds
Few Clouds
 Pravac vetra ZJZ
Vetar: ZJZ 7 km/h
Temperatura: 36°C
Tačka rose: 13°C
Vlažnost: 25%
Pritisak: 1011 hPa
Oblaci: Few Clouds
Vidljivost: 10 km
Cloud details: Few Clouds 1219 m
2022/07/05 14:30 LWSK 051430Z 24004KT 190V270 9999 FEW040 36/13 Q1011 NOSIG
 
LYVR - Vrsac, Yugoslavia
Distance from station: SSZ 189km
Ažurirano: 05/07/2022 16:30
Vedro
Vedro
 Pravac vetra ZSZ
Vetar: ZSZ 9 km/h
Temperatura: 35°C
Tačka rose: 11°C
Vlažnost: 23%
Pritisak: 1011 hPa
Pregled: Vedro
Vidljivost: greater than 10 km
2022/07/05 14:30 LYVR 051430Z AUTO 29005KT 260V330 CAVOK 35/11 Q1011
LYUZ - Uzice-Ponikve, Yugoslavia
Distance from station: Z 207km
Ažurirano: 04/11/2021 00:30
NOT Current

 Pravac vetra varies
Vetar: varies 9 km/h
Temperatura: 14°C
Tačka rose: 7°C
Vlažnost: 63%
Pritisak: 1010 hPa
Vidljivost: 10 km
2021/11/03 23:30 LYUZ 032330Z AUTO VRB05KT 9999 ////// 14/07 Q1010
LYBE - Belgrade/Surcin, Yugoslavia
Distance from station: SZ 209km
Ažurirano: 05/07/2022 16:30
Vedro
Vedro
 Pravac vetra SSZ
Vetar: SSZ 19 km/h
Temperatura: 33°C
Heat Index: 34°C
Tačka rose: 18°C
Vlažnost: 41%
Pritisak: 1012 hPa
Pregled: Vedro
Vidljivost: greater than 10 km
2022/07/05 14:30 LYBE 051430Z 34010KT CAVOK 33/18 Q1012 NOSIG
 
LYBT - Batajnica, Yugoslavia
Distance from station: SZ 219km
Ažurirano: 05/07/2022 16:30
Vedro
Vedro
 Pravac vetra ZSZ
Vetar: ZSZ 22 km/h
Temperatura: 33°C
Heat Index: 34°C
Tačka rose: 18°C
Vlažnost: 41%
Pritisak: 1012 hPa
Pregled: Vedro
Vidljivost: greater than 10 km
2022/07/05 14:30 LYBT 051430Z 29012KT CAVOK 33/18 Q1012 NOSIG
LRTR - Timisoara/Giarma, Romania
Distance from station: SSZ 260km
Ažurirano: 05/07/2022 16:30
Nearby thunderstorm, Few clouds
Nearby thunderstorm, Few clouds
 Pravac vetra ZSZ
Vetar: ZSZ 22 km/h
Temperatura: 33°C
Tačka rose: 14°C
Vlažnost: 32%
Pritisak: 1011 hPa
Pregled: Nearby Thunderstorm
Oblaci: Few Clouds
Vidljivost: 10 km
Cloud details: Few Clouds 1676 m
2022/07/05 14:30 LRTR 051430Z 29012KT 9999 VCTS FEW055CB 33/14 Q1011 TEMPO TSRA
LBPD - Plovdiv, Bulgaria
Distance from station: JI 263km
Ažurirano: 05/07/2022 16:30
Vedro
Vedro
 Pravac vetra I
Vetar: I 17 km/h
Temperatura: 33°C
Tačka rose: 14°C
Vlažnost: 32%
Pritisak: 1013 hPa
Oblaci: Vedro
Vidljivost: 10 km
2022/07/05 14:30 LBPD 051430Z AUTO 10009KT 070V130 9999 NCD 33/14 Q1013 NOSIG
 
LYPG - Podgorica(Titogr, Yugoslavia
Distance from station: ZJZ 278km
Ažurirano: 05/07/2022 16:30
Few Clouds
Few Clouds
 Pravac vetra JZ
Vetar: JZ 24 km/h
Temperatura: 37°C
Tačka rose: 15°C
Vlažnost: 27%
Pritisak: 1010 hPa
Oblaci: Few Clouds
Vidljivost: 10 km
Cloud details: Few Clouds 1524 m
2022/07/05 14:30 LYPG 051430Z 23013KT 190V250 9999 FEW050 37/15 Q1010 NOSIG
LBGO - Gorna Orechovist, Bulgaria
Distance from station: I 285km
Ažurirano: 05/07/2022 16:30
Few Clouds
Few Clouds
 Pravac vetra I
Vetar: I 15 km/h
Temperatura: 33°C
Heat Index: 34°C
Tačka rose: 18°C
Vlažnost: 41%
Pritisak: 1012 hPa
Oblaci: Few Clouds
Vidljivost: 10 km
Cloud details: Few Clouds 2286 m
2022/07/05 14:30 LBGO 051430Z AUTO 09008KT 070V140 9999 FEW075/// 33/18 Q1012 NOSIG
LRSB - Sibiu/Turnisor, Romania
Distance from station: SSI 286km
Ažurirano: 05/07/2022 16:30
Delimično oblačno
Delimično oblačno
 Pravac vetra JJZ
Vetar: JJZ 7 km/h
Temperatura: 28°C
Heat Index: 29°C
Tačka rose: 19°C
Vlažnost: 58%
Pritisak: 1014 hPa
Oblaci: Delimično oblačno
Vidljivost: 10 km
Cloud details: Delimično oblačno 1219 m
2022/07/05 14:30 LRSB 051430Z 21004KT 9999 SCT040CB 28/19 Q1014
 
LWOH - Ohrid, Macedonia
Distance from station: JJZ 292km
Ažurirano: 05/07/2022 16:30
Delimično oblačno
Delimično oblačno
 Pravac vetra JJI
Vetar: JJI 7 km/h
Temperatura: 28°C
Heat Index: 29°C
Tačka rose: 18°C
Vlažnost: 55%
Pritisak: 1015 hPa
Oblaci: Delimično oblačno
Vidljivost: 10 km
Cloud details: Delimično oblačno 1311 m
2022/07/05 14:30 LWOH 051430Z 15004KT 9999 SCT043 28/18 Q1015
LQTZ - Tuzla, Yugoslavia
Distance from station: ZSZ 298km
Ažurirano: 05/07/2022 16:30
Thunderstorm, Pretežno oblačno
Thunderstorm, Pretežno oblačno
 Pravac vetra JZ
Vetar: JZ 6 km/h
Temperatura: 25°C
Tačka rose: 22°C
Vlažnost: 83%
Pritisak: 1015 hPa
Pregled: Thunderstorm
Oblaci: Pretežno oblačno
Vidljivost: 10 km
Cloud details: Few Clouds 1067 m
Pretežno oblačno 1524 m
2022/07/05 14:30 LQTZ 051430Z 23003KT 160V300 9999 TS FEW035CB BKN050 25/22 Q1015
LRAR - Arad, Romania
Distance from station: SSZ 301km
Ažurirano: 05/07/2022 16:30
Few Clouds
Few Clouds
 Pravac vetra ZSZ
Vetar: ZSZ 28 km/h
Temperatura: 34°C
Tačka rose: 15°C
Vlažnost: 32%
Pritisak: 1011 hPa
Oblaci: Few Clouds
Vidljivost: 10 km
Cloud details: Few Clouds 1707 m
2022/07/05 14:30 LRAR 051430Z 30015KT 9999 FEW056CB 34/15 Q1011
 
LYTV - Tivat, Yugoslavia
Distance from station: ZJZ 315km
Ažurirano: 05/07/2022 16:30
Vedro
Vedro
 Pravac vetra JJZ
Vetar: JJZ 7 km/h
Temperatura: 33°C
Heat Index: 34°C
Tačka rose: 18°C
Vlažnost: 41%
Pritisak: 1011 hPa
Pregled: Vedro
Vidljivost: greater than 10 km
2022/07/05 14:30 LYTV 051430Z 20004KT 140V250 CAVOK 33/18 Q1011 NOSIG
LATI - Tirana, Albania
Distance from station: JZ 316km
Ažurirano: 05/07/2022 16:50
Vedro
Vedro
 Pravac vetra SSZ
Vetar: SSZ 11 km/h
Temperatura: 35°C
Heat Index: 38°C
Tačka rose: 21°C
Vlažnost: 44%
Pritisak: 1010 hPa
Pregled: Vedro
Vidljivost: greater than 10 km
2022/07/05 14:50 LATI 051450Z 33006KT 290V360 CAVOK 35/21 Q1010 NOSIG
LQBK - Banja Luka, Yugoslavia
Distance from station: SZ 426km
Ažurirano: 05/07/2022 16:30
Few Clouds
Few Clouds
 Pravac vetra SZ
Vetar: SZ 19 km/h
Temperatura: 28°C
Heat Index: 29°C
Tačka rose: 18°C
Vlažnost: 55%
Pritisak: 1015 hPa
Oblaci: Few Clouds
Vidljivost: 10 km
Cloud details: Few Clouds 1372 m
2022/07/05 14:30 LQBK 051430Z 32010KT 9999 FEW045 28/18 Q1015 NOSIG
 
LDOS - Osijek, Croatia
Distance from station: SSZ 360km
Ažurirano: 05/07/2022 16:30
Few Clouds
Few Clouds
 Pravac vetra SSZ
Vetar: SSZ 19 km/h
Temperatura: 29°C
Heat Index: 29°C
Tačka rose: 18°C
Vlažnost: 51%
Pritisak: 1014 hPa
Oblaci: Few Clouds
Vidljivost: 10 km
Cloud details: Few Clouds 1372 m
2022/07/05 14:30 LDOS 051430Z 33010KT 290V360 9999 FEW045 29/18 Q1014
LDDU - Dubrovnik-Cilipi, Croatia
Distance from station: JZ 352km
Ažurirano: 05/07/2022 16:30
Vedro
Vedro
 Pravac vetra Z
Vetar: Z 11 km/h
Temperatura: 31°C
Heat Index: 33°C
Tačka rose: 19°C
Vlažnost: 49%
Pritisak: 1012 hPa
Pregled: Vedro
Vidljivost: greater than 10 km
2022/07/05 14:30 LDDU 051430Z 28006KT 200V330 CAVOK 31/19 Q1012 TEMPO 29010KT
LQMO - Mostar Airport, Bosnia-Herzegovina
Distance from station: Z 359km
Ažurirano: 05/07/2022 16:30
Few Clouds
Few Clouds
 Pravac vetra J
Vetar: J 17 km/h
Temperatura: 36°C
Tačka rose: 15°C
Vlažnost: 28%
Pritisak: 1009 hPa
Oblaci: Few Clouds
Vidljivost: 10 km
Cloud details: Few Clouds 1372 m
2022/07/05 14:30 LQMO 051430Z 19009KT 140V240 9999 FEW045 36/15 Q1009
 
LQSA - Sarajevo/Butmir, Yugoslavia
Distance from station: Z 311km
Ažurirano: 05/07/2022 16:30
Thunderstorm rain, Pretežno oblačno
Thunderstorm rain, Pretežno oblačno
 Pravac vetra varies
Vetar: varies 9 km/h
Temperatura: 19°C
Tačka rose: 17°C
Vlažnost: 88%
Pritisak: 1018 hPa
Pregled: Thunderstorm Rain
Oblaci: Pretežno oblačno
Vidljivost: 6 km
Cloud details: Delimično oblačno 914 m
Pretežno oblačno 1219 m
2022/07/05 14:30 LQSA 051430Z VRB05KT 6000 TSRA SCT030CB BKN040 19/17 Q1018 BECMG NSW
LDSP - Split/Kastel Sta, Croatia
Distance from station: Z 468km
Ažurirano: 05/07/2022 16:30
Vedro
Vedro
 Pravac vetra JZ
Vetar: JZ 22 km/h
Temperatura: 34°C
Heat Index: 36°C
Tačka rose: 19°C
Vlažnost: 41%
Pritisak: 1011 hPa
Pregled: Vedro
Vidljivost: greater than 10 km
2022/07/05 14:30 LDSP 051430Z 23012KT CAVOK 34/19 Q1011 NOSIG
LDZD - Zadar/Zemunik, Croatia
Distance from station: ZSZ 567km
Ažurirano: 05/07/2022 16:30
Vedro
Vedro
 Pravac vetra SZ
Vetar: SZ 24 km/h
Temperatura: 34°C
Tačka rose: 16°C
Vlažnost: 34%
Pritisak: 1012 hPa
Pregled: Vedro
Vidljivost: greater than 10 km
2022/07/05 14:30 LDZD 051430Z 31013KT 280V360 CAVOK 34/16 Q1012 NOSIG
 
LDZA - Zagreb/Pleso, Croatia
Distance from station: SZ 555km
Ažurirano: 05/07/2022 16:30
Vedro
Vedro
 Pravac vetra SSI
Vetar: SSI 15 km/h
Temperatura: 29°C
Heat Index: 29°C
Tačka rose: 15°C
Vlažnost: 43%
Pritisak: 1015 hPa
Pregled: Vedro
Vidljivost: greater than 10 km
2022/07/05 14:30 LDZA 051430Z 02008KT 320V130 CAVOK 29/15 Q1015 NOSIG
LJCE - Cerklje, Slovenia
Distance from station: SZ 680km
Ažurirano: 05/07/2022 16:30
Vedro
Vedro
 Pravac vetra SSI
Vetar: SSI 7 km/h
Temperatura: 29°C
Heat Index: 29°C
Tačka rose: 17°C
Vlažnost: 48%
Pritisak: 1015 hPa
Pregled: Vedro
Vidljivost: greater than 10 km
2022/07/05 14:30 LJCE 051430Z 03004KT 330V080 CAVOK 29/17 Q1015 RMK BLU
LJMB - Maribor, Slovenia
Distance from station: SZ 616km
Ažurirano: 05/07/2022 16:30
Delimično oblačno
Delimično oblačno
 Pravac vetra S
Vetar: S 7 km/h
Temperatura: 27°C
Heat Index: 28°C
Tačka rose: 16°C
Vlažnost: 51%
Pritisak: 1016 hPa
Oblaci: Delimično oblačno
Vidljivost: 10 km
Cloud details: Few Clouds 1372 m
Delimično oblačno 6706 m
2022/07/05 14:30 LJMB 051430Z 01004KT 330V040 9999 FEW045 SCT220 27/16 Q1016
 
LJLJ - Ljubljana/Brnik, Slovenia
Distance from station: SZ 671km
Ažurirano: 05/07/2022 16:30
Delimično oblačno
Delimično oblačno
 Pravac vetra I
Vetar: I 7 km/h
Temperatura: 27°C
Heat Index: 28°C
Tačka rose: 16°C
Vlažnost: 51%
Pritisak: 1016 hPa
Oblaci: Delimično oblačno
Vidljivost: 10 km
Cloud details: Few Clouds 1829 m
Delimično oblačno 5791 m
2022/07/05 14:30 LJLJ 051430Z 09004KT 050V130 9999 FEW060 SCT190 27/16 Q1016 NOSIG
LDRI - Rijeka, Croatia
Distance from station: SZ 650km
Ažurirano: 05/07/2022 16:30
Delimično oblačno
Delimično oblačno
 Pravac vetra ISI
Vetar: ISI 20 km/h
Temperatura: 29°C
Heat Index: 29°C
Tačka rose: 16°C
Vlažnost: 45%
Pritisak: 1014 hPa
Oblaci: Delimično oblačno
Vidljivost: 10 km
Cloud details: Few Clouds 792 m
Few Clouds 1219 m
Delimično oblačno 1707 m
2022/07/05 14:30 LDRI 051430Z 06011KT 9999 FEW026TCU FEW040 SCT056 29/16 Q1014
LDPL - Pula, Croatia
Distance from station: ZSZ 686km
Ažurirano: 05/07/2022 16:30
Vedro
Vedro
 Pravac vetra varies
Vetar: varies 9 km/h
Temperatura: 32°C
Heat Index: 33°C
Tačka rose: 17°C
Vlažnost: 41%
Pritisak: 1013 hPa
Pregled: Vedro
Vidljivost: greater than 10 km
2022/07/05 14:30 LDPL 051430Z VRB05KT CAVOK 32/17 Q1013 BECMG 06010KT
 
LJPZ - Portorož, Slovenia
Distance from station: ZSZ 720km
Ažurirano: 05/07/2022 16:30
Delimično oblačno
Delimično oblačno
 Pravac vetra ZSZ
Vetar: ZSZ 24 km/h
Temperatura: 30°C
Heat Index: 33°C
Tačka rose: 21°C
Vlažnost: 59%
Pritisak: 1012 hPa
Oblaci: Delimično oblačno
Vidljivost: 10 km
Cloud details: Few Clouds 1524 m
Delimično oblačno 3658 m
2022/07/05 14:30 LJPZ 051430Z 29013KT 9999 FEW050 SCT120 30/21 Q1012